sensor_id;sensor_type;location;lat;lon;timestamp;P1;durP1;ratioP1;P2;durP2;ratioP2
67997;SDS011;54773;53.388;-1.504;2023-06-10T00:00:00;17.50;;;11.63;;
67997;SDS011;54773;53.388;-1.504;2023-06-10T00:02:44;16.48;;;11.48;;
67997;SDS011;54773;53.388;-1.504;2023-06-10T00:05:28;17.30;;;11.23;;
67997;SDS011;54773;53.388;-1.504;2023-06-10T00:08:13;15.23;;;9.23;;
67997;SDS011;54773;53.388;-1.504;2023-06-10T00:10:59;15.23;;;9.68;;
67997;SDS011;54773;53.388;-1.504;2023-06-10T00:13:44;17.95;;;10.48;;
67997;SDS011;54773;53.388;-1.504;2023-06-10T00:16:28;17.92;;;11.65;;
67997;SDS011;54773;53.388;-1.504;2023-06-10T00:19:12;21.73;;;12.30;;
67997;SDS011;54773;53.388;-1.504;2023-06-10T00:21:59;26.60;;;15.27;;
67997;SDS011;54773;53.388;-1.504;2023-06-10T00:24:43;25.63;;;16.38;;
67997;SDS011;54773;53.388;-1.504;2023-06-10T00:27:27;26.13;;;15.30;;
67997;SDS011;54773;53.388;-1.504;2023-06-10T00:30:15;25.75;;;15.48;;
67997;SDS011;54773;53.388;-1.504;2023-06-10T00:32:59;28.58;;;15.52;;
67997;SDS011;54773;53.388;-1.504;2023-06-10T00:35:46;26.23;;;15.98;;
67997;SDS011;54773;53.388;-1.504;2023-06-10T00:38:30;27.00;;;16.50;;
67997;SDS011;54773;53.388;-1.504;2023-06-10T00:41:16;26.63;;;16.95;;
67997;SDS011;54773;53.388;-1.504;2023-06-10T00:44:00;25.40;;;15.67;;
67997;SDS011;54773;53.388;-1.504;2023-06-10T00:46:45;28.70;;;16.23;;
67997;SDS011;54773;53.388;-1.504;2023-06-10T00:49:29;27.75;;;16.13;;
67997;SDS011;54773;53.388;-1.504;2023-06-10T00:52:13;29.03;;;16.77;;
67997;SDS011;54773;53.388;-1.504;2023-06-10T00:54:59;27.02;;;15.82;;
67997;SDS011;54773;53.388;-1.504;2023-06-10T00:57:44;29.58;;;16.15;;
67997;SDS011;54773;53.388;-1.504;2023-06-10T01:00:29;29.65;;;15.98;;
67997;SDS011;54773;53.388;-1.504;2023-06-10T01:03:13;31.45;;;15.75;;
67997;SDS011;54773;53.388;-1.504;2023-06-10T01:06:01;37.53;;;16.33;;
67997;SDS011;54773;53.388;-1.504;2023-06-10T01:15:25;31.13;;;17.10;;
67997;SDS011;54773;53.388;-1.504;2023-06-10T01:18:09;32.05;;;16.85;;
67997;SDS011;54773;53.388;-1.504;2023-06-10T01:20:58;31.30;;;16.85;;
67997;SDS011;54773;53.388;-1.504;2023-06-10T01:23:42;31.75;;;17.00;;
67997;SDS011;54773;53.388;-1.504;2023-06-10T01:26:28;32.10;;;16.70;;
67997;SDS011;54773;53.388;-1.504;2023-06-10T01:29:25;31.38;;;16.42;;
67997;SDS011;54773;53.388;-1.504;2023-06-10T01:35:14;31.70;;;16.23;;
67997;SDS011;54773;53.388;-1.504;2023-06-10T01:37:58;35.08;;;17.08;;
67997;SDS011;54773;53.388;-1.504;2023-06-10T01:40:44;31.58;;;16.52;;
67997;SDS011;54773;53.388;-1.504;2023-06-10T01:43:32;33.85;;;17.65;;
67997;SDS011;54773;53.388;-1.504;2023-06-10T01:46:17;31.27;;;16.42;;
67997;SDS011;54773;53.388;-1.504;2023-06-10T01:49:05;32.00;;;17.10;;
67997;SDS011;54773;53.388;-1.504;2023-06-10T01:51:49;30.80;;;17.33;;
67997;SDS011;54773;53.388;-1.504;2023-06-10T01:54:33;29.37;;;17.23;;
67997;SDS011;54773;53.388;-1.504;2023-06-10T01:57:18;27.13;;;15.20;;
67997;SDS011;54773;53.388;-1.504;2023-06-10T02:00:03;31.08;;;17.02;;
67997;SDS011;54773;53.388;-1.504;2023-06-10T02:02:47;30.25;;;16.73;;
67997;SDS011;54773;53.388;-1.504;2023-06-10T02:05:31;28.23;;;15.73;;
67997;SDS011;54773;53.388;-1.504;2023-06-10T02:08:16;28.30;;;16.92;;
67997;SDS011;54773;53.388;-1.504;2023-06-10T02:10:59;27.85;;;16.15;;
67997;SDS011;54773;53.388;-1.504;2023-06-10T02:13:43;30.35;;;16.20;;
67997;SDS011;54773;53.388;-1.504;2023-06-10T02:16:27;26.85;;;16.30;;
67997;SDS011;54773;53.388;-1.504;2023-06-10T02:19:11;30.88;;;16.58;;
67997;SDS011;54773;53.388;-1.504;2023-06-10T02:21:56;29.48;;;16.30;;
67997;SDS011;54773;53.388;-1.504;2023-06-10T02:24:40;27.57;;;15.40;;
67997;SDS011;54773;53.388;-1.504;2023-06-10T02:27:24;31.13;;;16.77;;
67997;SDS011;54773;53.388;-1.504;2023-06-10T02:30:09;30.23;;;15.88;;
67997;SDS011;54773;53.388;-1.504;2023-06-10T02:35:40;26.95;;;15.82;;
67997;SDS011;54773;53.388;-1.504;2023-06-10T02:38:24;32.60;;;18.02;;
67997;SDS011;54773;53.388;-1.504;2023-06-10T02:41:08;30.73;;;17.43;;
67997;SDS011;54773;53.388;-1.504;2023-06-10T02:43:52;30.03;;;16.30;;
67997;SDS011;54773;53.388;-1.504;2023-06-10T02:46:36;31.38;;;17.58;;
67997;SDS011;54773;53.388;-1.504;2023-06-10T02:49:20;32.30;;;16.33;;
67997;SDS011;54773;53.388;-1.504;2023-06-10T02:52:04;27.02;;;15.02;;
67997;SDS011;54773;53.388;-1.504;2023-06-10T02:54:50;27.75;;;16.77;;
67997;SDS011;54773;53.388;-1.504;2023-06-10T02:57:34;28.17;;;15.75;;
67997;SDS011;54773;53.388;-1.504;2023-06-10T03:00:18;29.03;;;16.07;;
67997;SDS011;54773;53.388;-1.504;2023-06-10T03:03:04;29.05;;;14.57;;
67997;SDS011;54773;53.388;-1.504;2023-06-10T03:05:48;27.20;;;15.23;;
67997;SDS011;54773;53.388;-1.504;2023-06-10T03:08:32;29.88;;;15.35;;
67997;SDS011;54773;53.388;-1.504;2023-06-10T03:11:16;27.50;;;14.35;;
67997;SDS011;54773;53.388;-1.504;2023-06-10T03:14:00;27.13;;;14.63;;
67997;SDS011;54773;53.388;-1.504;2023-06-10T03:16:44;26.92;;;14.38;;
67997;SDS011;54773;53.388;-1.504;2023-06-10T03:22:13;28.88;;;16.10;;
67997;SDS011;54773;53.388;-1.504;2023-06-10T03:24:58;26.65;;;15.23;;
67997;SDS011;54773;53.388;-1.504;2023-06-10T03:27:43;33.25;;;16.42;;
67997;SDS011;54773;53.388;-1.504;2023-06-10T03:30:27;34.13;;;17.57;;
67997;SDS011;54773;53.388;-1.504;2023-06-10T03:33:11;30.45;;;15.77;;
67997;SDS011;54773;53.388;-1.504;2023-06-10T03:35:55;33.33;;;17.35;;
67997;SDS011;54773;53.388;-1.504;2023-06-10T03:38:39;33.80;;;16.02;;
67997;SDS011;54773;53.388;-1.504;2023-06-10T03:41:23;29.87;;;15.73;;
67997;SDS011;54773;53.388;-1.504;2023-06-10T03:44:07;31.58;;;15.05;;
67997;SDS011;54773;53.388;-1.504;2023-06-10T03:46:51;26.80;;;14.52;;
67997;SDS011;54773;53.388;-1.504;2023-06-10T03:49:35;32.22;;;14.40;;
67997;SDS011;54773;53.388;-1.504;2023-06-10T03:52:20;30.75;;;15.52;;
67997;SDS011;54773;53.388;-1.504;2023-06-10T03:55:04;31.52;;;15.57;;
67997;SDS011;54773;53.388;-1.504;2023-06-10T03:57:49;31.90;;;15.18;;
67997;SDS011;54773;53.388;-1.504;2023-06-10T04:00:33;30.85;;;14.38;;
67997;SDS011;54773;53.388;-1.504;2023-06-10T04:03:25;32.70;;;15.88;;
67997;SDS011;54773;53.388;-1.504;2023-06-10T04:06:10;31.58;;;15.52;;
67997;SDS011;54773;53.388;-1.504;2023-06-10T04:08:54;29.83;;;15.43;;
67997;SDS011;54773;53.388;-1.504;2023-06-10T04:11:40;27.83;;;14.60;;
67997;SDS011;54773;53.388;-1.504;2023-06-10T04:14:24;27.73;;;14.07;;
67997;SDS011;54773;53.388;-1.504;2023-06-10T04:17:08;28.13;;;13.50;;
67997;SDS011;54773;53.388;-1.504;2023-06-10T04:19:52;31.60;;;14.33;;
67997;SDS011;54773;53.388;-1.504;2023-06-10T04:22:38;31.95;;;14.68;;
67997;SDS011;54773;53.388;-1.504;2023-06-10T04:25:22;26.52;;;13.35;;
67997;SDS011;54773;53.388;-1.504;2023-06-10T04:28:06;27.40;;;13.90;;
67997;SDS011;54773;53.388;-1.504;2023-06-10T04:30:50;28.52;;;14.23;;
67997;SDS011;54773;53.388;-1.504;2023-06-10T04:33:34;25.97;;;12.83;;
67997;SDS011;54773;53.388;-1.504;2023-06-10T04:36:18;26.40;;;13.30;;
67997;SDS011;54773;53.388;-1.504;2023-06-10T04:39:03;25.77;;;14.40;;
67997;SDS011;54773;53.388;-1.504;2023-06-10T04:41:48;28.92;;;13.70;;
67997;SDS011;54773;53.388;-1.504;2023-06-10T04:44:35;30.45;;;12.93;;
67997;SDS011;54773;53.388;-1.504;2023-06-10T04:47:20;27.13;;;13.70;;
67997;SDS011;54773;53.388;-1.504;2023-06-10T04:50:05;27.08;;;12.55;;
67997;SDS011;54773;53.388;-1.504;2023-06-10T04:52:49;26.63;;;12.65;;
67997;SDS011;54773;53.388;-1.504;2023-06-10T04:55:33;26.25;;;12.43;;
67997;SDS011;54773;53.388;-1.504;2023-06-10T04:58:20;22.70;;;12.05;;
67997;SDS011;54773;53.388;-1.504;2023-06-10T05:01:04;27.50;;;12.90;;
67997;SDS011;54773;53.388;-1.504;2023-06-10T05:03:48;27.50;;;12.82;;
67997;SDS011;54773;53.388;-1.504;2023-06-10T05:06:33;23.45;;;11.80;;
67997;SDS011;54773;53.388;-1.504;2023-06-10T05:09:17;26.33;;;10.95;;
67997;SDS011;54773;53.388;-1.504;2023-06-10T05:12:00;26.43;;;13.00;;
67997;SDS011;54773;53.388;-1.504;2023-06-10T05:14:48;25.98;;;11.63;;
67997;SDS011;54773;53.388;-1.504;2023-06-10T05:17:33;25.92;;;12.55;;
67997;SDS011;54773;53.388;-1.504;2023-06-10T05:20:18;26.17;;;11.75;;
67997;SDS011;54773;53.388;-1.504;2023-06-10T05:23:02;24.60;;;11.60;;
67997;SDS011;54773;53.388;-1.504;2023-06-10T05:25:46;25.88;;;12.32;;
67997;SDS011;54773;53.388;-1.504;2023-06-10T05:28:31;24.65;;;11.10;;
67997;SDS011;54773;53.388;-1.504;2023-06-10T05:31:15;23.17;;;11.27;;
67997;SDS011;54773;53.388;-1.504;2023-06-10T05:33:59;26.77;;;11.83;;
67997;SDS011;54773;53.388;-1.504;2023-06-10T05:36:43;20.53;;;10.77;;
67997;SDS011;54773;53.388;-1.504;2023-06-10T05:39:27;21.40;;;11.43;;
67997;SDS011;54773;53.388;-1.504;2023-06-10T05:42:11;25.53;;;11.10;;
67997;SDS011;54773;53.388;-1.504;2023-06-10T05:44:55;22.17;;;11.35;;
67997;SDS011;54773;53.388;-1.504;2023-06-10T05:47:39;21.67;;;11.68;;
67997;SDS011;54773;53.388;-1.504;2023-06-10T05:50:30;24.75;;;11.02;;
67997;SDS011;54773;53.388;-1.504;2023-06-10T05:53:14;20.13;;;11.20;;
67997;SDS011;54773;53.388;-1.504;2023-06-10T05:55:59;21.25;;;10.27;;
67997;SDS011;54773;53.388;-1.504;2023-06-10T05:58:43;21.45;;;10.30;;
67997;SDS011;54773;53.388;-1.504;2023-06-10T06:01:27;21.03;;;10.93;;
67997;SDS011;54773;53.388;-1.504;2023-06-10T06:04:11;24.25;;;9.93;;
67997;SDS011;54773;53.388;-1.504;2023-06-10T06:09:40;17.33;;;9.57;;
67997;SDS011;54773;53.388;-1.504;2023-06-10T06:12:24;19.80;;;10.75;;
67997;SDS011;54773;53.388;-1.504;2023-06-10T06:15:09;19.10;;;9.63;;
67997;SDS011;54773;53.388;-1.504;2023-06-10T06:17:54;16.90;;;10.15;;
67997;SDS011;54773;53.388;-1.504;2023-06-10T06:20:39;20.13;;;10.43;;
67997;SDS011;54773;53.388;-1.504;2023-06-10T06:23:24;17.48;;;9.52;;
67997;SDS011;54773;53.388;-1.504;2023-06-10T06:26:09;19.13;;;9.85;;
67997;SDS011;54773;53.388;-1.504;2023-06-10T06:28:53;16.92;;;9.57;;
67997;SDS011;54773;53.388;-1.504;2023-06-10T06:31:36;19.30;;;9.77;;
67997;SDS011;54773;53.388;-1.504;2023-06-10T06:34:20;18.67;;;9.15;;
67997;SDS011;54773;53.388;-1.504;2023-06-10T06:37:04;22.90;;;10.30;;
67997;SDS011;54773;53.388;-1.504;2023-06-10T06:39:52;20.60;;;9.82;;
67997;SDS011;54773;53.388;-1.504;2023-06-10T06:42:37;18.67;;;8.80;;
67997;SDS011;54773;53.388;-1.504;2023-06-10T06:45:22;24.17;;;9.95;;
67997;SDS011;54773;53.388;-1.504;2023-06-10T06:48:09;15.00;;;8.93;;
67997;SDS011;54773;53.388;-1.504;2023-06-10T06:50:53;17.00;;;8.95;;
67997;SDS011;54773;53.388;-1.504;2023-06-10T06:53:39;16.67;;;8.60;;
67997;SDS011;54773;53.388;-1.504;2023-06-10T06:56:28;16.30;;;8.85;;
67997;SDS011;54773;53.388;-1.504;2023-06-10T06:59:12;15.60;;;8.82;;
67997;SDS011;54773;53.388;-1.504;2023-06-10T07:01:57;20.85;;;9.20;;
67997;SDS011;54773;53.388;-1.504;2023-06-10T07:04:41;21.20;;;9.60;;
67997;SDS011;54773;53.388;-1.504;2023-06-10T07:07:25;14.80;;;8.32;;
67997;SDS011;54773;53.388;-1.504;2023-06-10T07:10:09;17.83;;;9.38;;
67997;SDS011;54773;53.388;-1.504;2023-06-10T07:12:53;16.98;;;9.90;;
67997;SDS011;54773;53.388;-1.504;2023-06-10T07:18:22;20.58;;;9.13;;
67997;SDS011;54773;53.388;-1.504;2023-06-10T07:21:06;17.10;;;8.57;;
67997;SDS011;54773;53.388;-1.504;2023-06-10T07:23:50;15.47;;;7.83;;
67997;SDS011;54773;53.388;-1.504;2023-06-10T07:26:38;16.00;;;9.02;;
67997;SDS011;54773;53.388;-1.504;2023-06-10T07:29:22;14.90;;;8.23;;
67997;SDS011;54773;53.388;-1.504;2023-06-10T07:32:07;12.80;;;7.68;;
67997;SDS011;54773;53.388;-1.504;2023-06-10T07:34:51;16.98;;;8.27;;
67997;SDS011;54773;53.388;-1.504;2023-06-10T07:37:39;18.90;;;8.63;;
67997;SDS011;54773;53.388;-1.504;2023-06-10T07:40:23;15.77;;;8.15;;
67997;SDS011;54773;53.388;-1.504;2023-06-10T07:43:08;14.55;;;8.25;;
67997;SDS011;54773;53.388;-1.504;2023-06-10T07:45:55;14.57;;;8.10;;
67997;SDS011;54773;53.388;-1.504;2023-06-10T07:48:39;16.90;;;8.40;;
67997;SDS011;54773;53.388;-1.504;2023-06-10T07:51:26;13.88;;;7.85;;
67997;SDS011;54773;53.388;-1.504;2023-06-10T07:54:10;16.83;;;8.13;;
67997;SDS011;54773;53.388;-1.504;2023-06-10T07:56:55;16.30;;;7.38;;
67997;SDS011;54773;53.388;-1.504;2023-06-10T07:59:40;15.25;;;7.30;;
67997;SDS011;54773;53.388;-1.504;2023-06-10T08:02:24;16.50;;;7.88;;
67997;SDS011;54773;53.388;-1.504;2023-06-10T08:05:08;17.87;;;7.77;;
67997;SDS011;54773;53.388;-1.504;2023-06-10T08:07:52;14.98;;;7.70;;
67997;SDS011;54773;53.388;-1.504;2023-06-10T08:10:35;15.60;;;7.37;;
67997;SDS011;54773;53.388;-1.504;2023-06-10T08:13:23;14.75;;;6.70;;
67997;SDS011;54773;53.388;-1.504;2023-06-10T08:16:07;17.60;;;7.23;;
67997;SDS011;54773;53.388;-1.504;2023-06-10T08:18:54;15.80;;;6.95;;
67997;SDS011;54773;53.388;-1.504;2023-06-10T08:21:38;13.57;;;7.13;;
67997;SDS011;54773;53.388;-1.504;2023-06-10T08:27:07;17.02;;;6.82;;
67997;SDS011;54773;53.388;-1.504;2023-06-10T08:29:51;10.50;;;6.72;;
67997;SDS011;54773;53.388;-1.504;2023-06-10T08:32:35;14.50;;;6.50;;
67997;SDS011;54773;53.388;-1.504;2023-06-10T08:35:20;15.38;;;7.03;;
67997;SDS011;54773;53.388;-1.504;2023-06-10T08:38:04;14.07;;;7.28;;
67997;SDS011;54773;53.388;-1.504;2023-06-10T08:40:48;15.80;;;7.87;;
67997;SDS011;54773;53.388;-1.504;2023-06-10T08:46:21;16.20;;;7.20;;
67997;SDS011;54773;53.388;-1.504;2023-06-10T08:49:06;14.35;;;6.82;;
67997;SDS011;54773;53.388;-1.504;2023-06-10T08:51:51;14.25;;;7.47;;
67997;SDS011;54773;53.388;-1.504;2023-06-10T08:54:39;15.20;;;7.18;;
67997;SDS011;54773;53.388;-1.504;2023-06-10T08:57:33;16.50;;;6.90;;
67997;SDS011;54773;53.388;-1.504;2023-06-10T09:00:18;15.52;;;6.68;;
67997;SDS011;54773;53.388;-1.504;2023-06-10T09:03:05;11.20;;;6.57;;
67997;SDS011;54773;53.388;-1.504;2023-06-10T09:05:55;19.38;;;7.47;;
67997;SDS011;54773;53.388;-1.504;2023-06-10T09:08:40;11.23;;;6.68;;
67997;SDS011;54773;53.388;-1.504;2023-06-10T09:11:27;13.75;;;7.35;;
67997;SDS011;54773;53.388;-1.504;2023-06-10T09:14:11;11.13;;;6.47;;
67997;SDS011;54773;53.388;-1.504;2023-06-10T09:17:00;14.38;;;6.22;;
67997;SDS011;54773;53.388;-1.504;2023-06-10T09:19:44;15.43;;;6.88;;
67997;SDS011;54773;53.388;-1.504;2023-06-10T09:22:29;14.80;;;6.45;;
67997;SDS011;54773;53.388;-1.504;2023-06-10T09:25:13;14.60;;;6.60;;
67997;SDS011;54773;53.388;-1.504;2023-06-10T09:27:57;15.97;;;8.13;;
67997;SDS011;54773;53.388;-1.504;2023-06-10T09:30:41;13.80;;;6.90;;
67997;SDS011;54773;53.388;-1.504;2023-06-10T09:33:25;17.95;;;6.88;;
67997;SDS011;54773;53.388;-1.504;2023-06-10T09:36:10;16.20;;;7.38;;
67997;SDS011;54773;53.388;-1.504;2023-06-10T09:38:56;13.77;;;7.25;;
67997;SDS011;54773;53.388;-1.504;2023-06-10T09:41:40;14.40;;;7.03;;
67997;SDS011;54773;53.388;-1.504;2023-06-10T09:44:25;15.88;;;7.90;;
67997;SDS011;54773;53.388;-1.504;2023-06-10T09:47:09;12.73;;;6.88;;
67997;SDS011;54773;53.388;-1.504;2023-06-10T09:50:03;15.32;;;8.15;;
67997;SDS011;54773;53.388;-1.504;2023-06-10T09:52:48;14.35;;;8.25;;
67997;SDS011;54773;53.388;-1.504;2023-06-10T09:55:33;16.40;;;7.55;;
67997;SDS011;54773;53.388;-1.504;2023-06-10T09:58:33;15.05;;;7.57;;
67997;SDS011;54773;53.388;-1.504;2023-06-10T10:01:27;13.55;;;7.70;;
67997;SDS011;54773;53.388;-1.504;2023-06-10T10:04:10;14.20;;;7.40;;
67997;SDS011;54773;53.388;-1.504;2023-06-10T10:06:54;15.75;;;7.88;;
67997;SDS011;54773;53.388;-1.504;2023-06-10T10:09:41;14.00;;;7.17;;
67997;SDS011;54773;53.388;-1.504;2023-06-10T10:12:26;12.30;;;7.78;;
67997;SDS011;54773;53.388;-1.504;2023-06-10T10:17:57;17.83;;;8.32;;
67997;SDS011;54773;53.388;-1.504;2023-06-10T10:20:49;13.57;;;7.50;;
67997;SDS011;54773;53.388;-1.504;2023-06-10T10:26:46;14.45;;;7.55;;
67997;SDS011;54773;53.388;-1.504;2023-06-10T10:29:38;16.63;;;8.57;;
67997;SDS011;54773;53.388;-1.504;2023-06-10T10:32:29;17.70;;;8.73;;
67997;SDS011;54773;53.388;-1.504;2023-06-10T10:35:27;16.25;;;8.63;;
67997;SDS011;54773;53.388;-1.504;2023-06-10T10:38:17;16.05;;;9.10;;
67997;SDS011;54773;53.388;-1.504;2023-06-10T10:41:02;13.20;;;7.88;;
67997;SDS011;54773;53.388;-1.504;2023-06-10T10:43:46;16.15;;;8.35;;
67997;SDS011;54773;53.388;-1.504;2023-06-10T10:46:31;13.20;;;8.40;;
67997;SDS011;54773;53.388;-1.504;2023-06-10T10:49:26;16.77;;;8.25;;
67997;SDS011;54773;53.388;-1.504;2023-06-10T10:54:55;15.20;;;7.78;;
67997;SDS011;54773;53.388;-1.504;2023-06-10T10:57:39;14.43;;;8.15;;
67997;SDS011;54773;53.388;-1.504;2023-06-10T11:00:27;16.17;;;8.65;;
67997;SDS011;54773;53.388;-1.504;2023-06-10T11:03:13;15.38;;;7.65;;
67997;SDS011;54773;53.388;-1.504;2023-06-10T11:06:00;14.57;;;7.90;;
67997;SDS011;54773;53.388;-1.504;2023-06-10T11:11:28;14.23;;;8.10;;
67997;SDS011;54773;53.388;-1.504;2023-06-10T11:16:59;11.80;;;7.28;;
67997;SDS011;54773;53.388;-1.504;2023-06-10T11:19:43;14.48;;;8.18;;
67997;SDS011;54773;53.388;-1.504;2023-06-10T11:22:30;13.20;;;7.93;;
67997;SDS011;54773;53.388;-1.504;2023-06-10T11:25:14;14.05;;;8.30;;
67997;SDS011;54773;53.388;-1.504;2023-06-10T11:28:01;16.80;;;8.60;;
67997;SDS011;54773;53.388;-1.504;2023-06-10T11:30:45;15.23;;;8.25;;
67997;SDS011;54773;53.388;-1.504;2023-06-10T11:33:30;18.77;;;7.70;;
67997;SDS011;54773;53.388;-1.504;2023-06-10T11:36:15;13.68;;;8.70;;
67997;SDS011;54773;53.388;-1.504;2023-06-10T11:39:01;16.33;;;8.68;;
67997;SDS011;54773;53.388;-1.504;2023-06-10T11:41:46;14.02;;;8.38;;
67997;SDS011;54773;53.388;-1.504;2023-06-10T11:44:30;16.65;;;7.55;;
67997;SDS011;54773;53.388;-1.504;2023-06-10T11:47:17;15.77;;;8.60;;
67997;SDS011;54773;53.388;-1.504;2023-06-10T11:50:02;18.67;;;8.75;;
67997;SDS011;54773;53.388;-1.504;2023-06-10T11:55:43;12.80;;;8.30;;
67997;SDS011;54773;53.388;-1.504;2023-06-10T11:58:28;16.13;;;8.55;;
67997;SDS011;54773;53.388;-1.504;2023-06-10T12:01:18;15.77;;;8.93;;
67997;SDS011;54773;53.388;-1.504;2023-06-10T12:04:05;14.45;;;8.82;;
67997;SDS011;54773;53.388;-1.504;2023-06-10T12:06:51;16.50;;;9.45;;
67997;SDS011;54773;53.388;-1.504;2023-06-10T12:09:38;18.65;;;8.85;;
67997;SDS011;54773;53.388;-1.504;2023-06-10T12:12:22;13.80;;;8.25;;
67997;SDS011;54773;53.388;-1.504;2023-06-10T12:15:06;17.67;;;8.38;;
67997;SDS011;54773;53.388;-1.504;2023-06-10T12:17:51;15.25;;;8.15;;
67997;SDS011;54773;53.388;-1.504;2023-06-10T12:20:35;13.88;;;8.05;;
67997;SDS011;54773;53.388;-1.504;2023-06-10T12:23:19;15.10;;;8.77;;
67997;SDS011;54773;53.388;-1.504;2023-06-10T12:26:05;13.77;;;7.65;;
67997;SDS011;54773;53.388;-1.504;2023-06-10T12:28:50;13.52;;;7.88;;
67997;SDS011;54773;53.388;-1.504;2023-06-10T12:31:51;17.08;;;8.15;;
67997;SDS011;54773;53.388;-1.504;2023-06-10T12:34:46;16.48;;;9.10;;
67997;SDS011;54773;53.388;-1.504;2023-06-10T12:40:17;14.40;;;8.95;;
67997;SDS011;54773;53.388;-1.504;2023-06-10T12:43:01;14.65;;;8.05;;
67997;SDS011;54773;53.388;-1.504;2023-06-10T12:45:46;18.45;;;8.43;;
67997;SDS011;54773;53.388;-1.504;2023-06-10T12:48:29;14.00;;;8.38;;
67997;SDS011;54773;53.388;-1.504;2023-06-10T12:51:13;12.82;;;7.90;;
67997;SDS011;54773;53.388;-1.504;2023-06-10T12:53:57;13.80;;;7.97;;
67997;SDS011;54773;53.388;-1.504;2023-06-10T12:56:41;12.57;;;8.77;;
67997;SDS011;54773;53.388;-1.504;2023-06-10T12:59:26;14.20;;;8.15;;
67997;SDS011;54773;53.388;-1.504;2023-06-10T13:02:11;16.05;;;8.48;;
67997;SDS011;54773;53.388;-1.504;2023-06-10T13:04:56;15.77;;;9.18;;
67997;SDS011;54773;53.388;-1.504;2023-06-10T13:07:40;18.48;;;9.15;;
67997;SDS011;54773;53.388;-1.504;2023-06-10T13:10:25;13.05;;;7.90;;
67997;SDS011;54773;53.388;-1.504;2023-06-10T13:13:10;15.23;;;8.57;;
67997;SDS011;54773;53.388;-1.504;2023-06-10T13:15:54;15.75;;;8.10;;
67997;SDS011;54773;53.388;-1.504;2023-06-10T13:18:38;16.23;;;8.48;;
67997;SDS011;54773;53.388;-1.504;2023-06-10T13:21:22;13.85;;;8.45;;
67997;SDS011;54773;53.388;-1.504;2023-06-10T13:24:06;16.88;;;8.45;;
67997;SDS011;54773;53.388;-1.504;2023-06-10T13:29:34;13.00;;;8.75;;
67997;SDS011;54773;53.388;-1.504;2023-06-10T13:32:18;14.45;;;9.02;;
67997;SDS011;54773;53.388;-1.504;2023-06-10T13:35:03;13.38;;;8.20;;
67997;SDS011;54773;53.388;-1.504;2023-06-10T13:37:48;13.05;;;8.02;;
67997;SDS011;54773;53.388;-1.504;2023-06-10T13:40:32;15.23;;;8.40;;
67997;SDS011;54773;53.388;-1.504;2023-06-10T13:43:17;12.80;;;8.90;;
67997;SDS011;54773;53.388;-1.504;2023-06-10T13:46:00;13.23;;;8.35;;
67997;SDS011;54773;53.388;-1.504;2023-06-10T13:48:44;12.27;;;8.50;;
67997;SDS011;54773;53.388;-1.504;2023-06-10T13:51:31;12.32;;;7.88;;
67997;SDS011;54773;53.388;-1.504;2023-06-10T13:57:00;14.85;;;8.57;;
67997;SDS011;54773;53.388;-1.504;2023-06-10T14:02:28;11.02;;;7.35;;
67997;SDS011;54773;53.388;-1.504;2023-06-10T14:05:13;12.13;;;7.88;;
67997;SDS011;54773;53.388;-1.504;2023-06-10T14:07:57;13.25;;;8.05;;
67997;SDS011;54773;53.388;-1.504;2023-06-10T14:13:25;12.50;;;7.45;;
67997;SDS011;54773;53.388;-1.504;2023-06-10T14:16:09;13.15;;;7.93;;
67997;SDS011;54773;53.388;-1.504;2023-06-10T14:18:56;9.77;;;7.63;;
67997;SDS011;54773;53.388;-1.504;2023-06-10T14:21:40;13.02;;;7.53;;
67997;SDS011;54773;53.388;-1.504;2023-06-10T14:24:24;11.15;;;7.75;;
67997;SDS011;54773;53.388;-1.504;2023-06-10T14:27:09;11.70;;;8.32;;
67997;SDS011;54773;53.388;-1.504;2023-06-10T14:29:53;10.95;;;7.55;;
67997;SDS011;54773;53.388;-1.504;2023-06-10T14:32:37;11.00;;;7.38;;
67997;SDS011;54773;53.388;-1.504;2023-06-10T14:35:21;10.32;;;8.90;;
67997;SDS011;54773;53.388;-1.504;2023-06-10T14:38:09;10.30;;;7.60;;
67997;SDS011;54773;53.388;-1.504;2023-06-10T14:40:56;10.98;;;7.72;;
67997;SDS011;54773;53.388;-1.504;2023-06-10T14:43:40;11.52;;;8.38;;
67997;SDS011;54773;53.388;-1.504;2023-06-10T14:46:25;11.02;;;8.25;;
67997;SDS011;54773;53.388;-1.504;2023-06-10T14:49:09;12.30;;;9.70;;
67997;SDS011;54773;53.388;-1.504;2023-06-10T14:51:53;9.70;;;8.70;;
67997;SDS011;54773;53.388;-1.504;2023-06-10T14:57:21;9.77;;;7.60;;
67997;SDS011;54773;53.388;-1.504;2023-06-10T15:00:05;9.60;;;7.88;;
67997;SDS011;54773;53.388;-1.504;2023-06-10T15:02:52;9.82;;;7.70;;
67997;SDS011;54773;53.388;-1.504;2023-06-10T15:05:37;11.02;;;7.82;;
67997;SDS011;54773;53.388;-1.504;2023-06-10T15:08:21;10.98;;;7.97;;
67997;SDS011;54773;53.388;-1.504;2023-06-10T15:11:05;10.30;;;7.88;;
67997;SDS011;54773;53.388;-1.504;2023-06-10T15:13:49;10.65;;;8.15;;
67997;SDS011;54773;53.388;-1.504;2023-06-10T15:16:33;12.75;;;8.10;;
67997;SDS011;54773;53.388;-1.504;2023-06-10T15:19:17;11.82;;;8.38;;
67997;SDS011;54773;53.388;-1.504;2023-06-10T15:22:02;9.48;;;7.78;;
67997;SDS011;54773;53.388;-1.504;2023-06-10T15:24:46;10.43;;;8.05;;
67997;SDS011;54773;53.388;-1.504;2023-06-10T15:27:31;10.45;;;8.00;;
67997;SDS011;54773;53.388;-1.504;2023-06-10T15:30:18;9.43;;;7.88;;
67997;SDS011;54773;53.388;-1.504;2023-06-10T15:33:03;11.05;;;7.97;;
67997;SDS011;54773;53.388;-1.504;2023-06-10T15:35:50;10.07;;;7.85;;
67997;SDS011;54773;53.388;-1.504;2023-06-10T15:38:38;11.45;;;8.57;;
67997;SDS011;54773;53.388;-1.504;2023-06-10T15:41:22;11.77;;;8.18;;
67997;SDS011;54773;53.388;-1.504;2023-06-10T15:44:06;12.20;;;7.93;;
67997;SDS011;54773;53.388;-1.504;2023-06-10T15:46:50;9.88;;;7.38;;
67997;SDS011;54773;53.388;-1.504;2023-06-10T15:49:34;10.07;;;7.68;;
67997;SDS011;54773;53.388;-1.504;2023-06-10T15:52:19;11.98;;;7.90;;
67997;SDS011;54773;53.388;-1.504;2023-06-10T15:55:03;12.32;;;7.97;;
67997;SDS011;54773;53.388;-1.504;2023-06-10T15:57:47;11.88;;;8.05;;
67997;SDS011;54773;53.388;-1.504;2023-06-10T16:00:31;8.95;;;7.55;;
67997;SDS011;54773;53.388;-1.504;2023-06-10T16:03:15;10.52;;;8.00;;
67997;SDS011;54773;53.388;-1.504;2023-06-10T16:05:59;10.75;;;8.15;;
67997;SDS011;54773;53.388;-1.504;2023-06-10T16:08:43;11.07;;;8.18;;
67997;SDS011;54773;53.388;-1.504;2023-06-10T16:11:27;11.45;;;8.55;;
67997;SDS011;54773;53.388;-1.504;2023-06-10T16:14:11;10.23;;;8.23;;
67997;SDS011;54773;53.388;-1.504;2023-06-10T16:16:57;11.20;;;9.35;;
67997;SDS011;54773;53.388;-1.504;2023-06-10T16:19:41;12.20;;;8.27;;
67997;SDS011;54773;53.388;-1.504;2023-06-10T16:22:25;11.98;;;8.88;;
67997;SDS011;54773;53.388;-1.504;2023-06-10T16:25:09;11.60;;;7.70;;
67997;SDS011;54773;53.388;-1.504;2023-06-10T16:27:53;9.27;;;8.07;;
67997;SDS011;54773;53.388;-1.504;2023-06-10T16:30:37;11.68;;;8.18;;
67997;SDS011;54773;53.388;-1.504;2023-06-10T16:33:21;12.85;;;7.90;;
67997;SDS011;54773;53.388;-1.504;2023-06-10T16:36:05;11.57;;;8.00;;
67997;SDS011;54773;53.388;-1.504;2023-06-10T16:38:49;10.55;;;7.40;;
67997;SDS011;54773;53.388;-1.504;2023-06-10T16:41:34;10.77;;;7.53;;
67997;SDS011;54773;53.388;-1.504;2023-06-10T16:44:18;10.38;;;7.70;;
67997;SDS011;54773;53.388;-1.504;2023-06-10T16:49:46;11.27;;;8.75;;
67997;SDS011;54773;53.388;-1.504;2023-06-10T16:55:14;14.95;;;11.48;;
67997;SDS011;54773;53.388;-1.504;2023-06-10T16:57:59;14.60;;;8.68;;
67997;SDS011;54773;53.388;-1.504;2023-06-10T17:03:29;12.18;;;8.32;;
67997;SDS011;54773;53.388;-1.504;2023-06-10T17:06:13;9.48;;;7.97;;